createdAt,value
2018-02-08T00:01:01.503Z,-2.86
2018-02-08T00:02:11.661Z,-2.88
2018-02-08T00:03:21.868Z,-2.86
2018-02-08T00:04:32.028Z,-2.83
2018-02-08T00:05:41.634Z,-2.95
2018-02-08T00:06:51.760Z,-2.94
2018-02-08T00:08:01.877Z,-2.91
2018-02-08T00:09:12.005Z,-2.94
2018-02-08T00:10:22.125Z,-2.92
2018-02-08T00:11:32.229Z,-2.89
2018-02-08T00:12:42.344Z,-3.01
2018-02-08T00:13:52.461Z,-3.01
2018-02-08T00:15:02.584Z,-2.98
2018-02-08T00:16:12.436Z,-3.04
2018-02-08T00:17:22.546Z,-3.05
2018-02-08T00:18:32.411Z,-3.05
2018-02-08T00:19:42.560Z,-3.1
2018-02-08T00:20:52.447Z,-3.02
2018-02-08T00:22:02.192Z,-3.02
2018-02-08T00:23:12.333Z,-3.1
2018-02-08T00:24:22.491Z,-3.12
2018-02-08T00:25:32.338Z,-3.08
2018-02-08T00:26:42.466Z,-3.08
2018-02-08T00:27:52.586Z,-3.15
2018-02-08T00:29:02.883Z,-3.15
2018-02-08T00:30:12.984Z,-3.08
2018-02-08T00:31:23.252Z,-3.12
2018-02-08T00:32:33.440Z,-3.15
2018-02-08T00:33:43.683Z,-3.19
2018-02-08T00:34:53.913Z,-3.16
2018-02-08T00:36:04.036Z,-3.15
2018-02-08T00:37:13.920Z,-3.08
2018-02-08T00:38:24.054Z,-3.12
2018-02-08T00:39:34.015Z,-3.09
2018-02-08T00:40:45.101Z,-2.99
2018-02-08T00:41:55.298Z,-3.04
2018-02-08T00:43:05.473Z,-2.95
2018-02-08T00:44:15.735Z,-2.95
2018-02-08T00:45:25.525Z,-2.89
2018-02-08T00:46:35.636Z,-2.88
2018-02-08T00:47:45.744Z,-2.99
2018-02-08T00:48:56.854Z,-2.91
2018-02-08T00:50:06.956Z,-2.89
2018-02-08T00:51:17.063Z,-2.89
2018-02-08T00:52:27.311Z,-2.91
2018-02-08T00:53:37.471Z,-2.92
2018-02-08T00:54:48.293Z,-2.97
2018-02-08T00:55:58.414Z,-2.89
2018-02-08T00:57:08.275Z,-2.94
2018-02-08T00:58:18.385Z,-2.89
2018-02-08T00:59:28.596Z,-2.91
2018-02-08T01:00:38.791Z,-3.09
2018-02-08T01:01:48.940Z,-3.23
2018-02-08T01:02:59.038Z,-3.23
2018-02-08T01:04:09.151Z,-3.37
2018-02-08T01:05:19.248Z,-3.4
2018-02-08T01:06:29.348Z,-3.48
2018-02-08T01:07:39.323Z,-3.58
2018-02-08T01:08:49.481Z,-3.43
2018-02-08T01:09:59.608Z,-3.4
2018-02-08T01:11:09.826Z,-3.4
2018-02-08T01:12:19.962Z,-3.43
2018-02-08T01:13:29.814Z,-3.48
2018-02-08T01:14:40.000Z,-3.43
2018-02-08T01:15:50.200Z,-3.41
2018-02-08T01:17:00.437Z,-3.45
2018-02-08T01:18:10.561Z,-3.45
2018-02-08T01:19:20.708Z,-3.48
2018-02-08T01:20:30.818Z,-3.52
2018-02-08T01:21:40.973Z,-3.49
2018-02-08T01:22:51.149Z,-3.54
2018-02-08T01:24:01.344Z,-3.38
2018-02-08T01:25:11.587Z,-3.35
2018-02-08T01:26:21.776Z,-3.31
2018-02-08T01:27:31.917Z,-3.28
2018-02-08T01:28:42.107Z,-3.27
2018-02-08T01:29:52.216Z,-3.3
2018-02-08T01:31:02.325Z,-3.31
2018-02-08T01:32:12.500Z,-3.37
2018-02-08T01:33:22.639Z,-3.35
2018-02-08T01:34:32.796Z,-3.43
2018-02-08T01:35:42.663Z,-3.45
2018-02-08T01:36:52.820Z,-3.41
2018-02-08T01:38:02.982Z,-3.45
2018-02-08T01:39:13.178Z,-3.35
2018-02-08T01:40:23.321Z,-3.34
2018-02-08T01:41:33.660Z,-3.38
2018-02-08T01:42:43.621Z,-3.4
2018-02-08T01:43:53.747Z,-3.41
2018-02-08T01:45:03.859Z,-3.46
2018-02-08T01:46:14.077Z,-3.49
2018-02-08T01:47:24.216Z,-3.43
2018-02-08T01:48:34.438Z,-3.41
2018-02-08T01:49:44.567Z,-3.46
2018-02-08T01:50:54.665Z,-3.54
2018-02-08T01:52:04.517Z,-3.4
2018-02-08T01:53:14.773Z,-3.48
2018-02-08T01:54:24.885Z,-3.45
2018-02-08T01:55:34.993Z,-3.4
2018-02-08T01:56:46.052Z,-3.38
2018-02-08T01:57:57.134Z,-3.4
2018-02-08T01:59:07.246Z,-3.34
2018-02-08T02:00:17.348Z,-3.35
2018-02-08T02:01:27.464Z,-3.34
2018-02-08T02:02:37.707Z,-3.41
2018-02-08T02:03:47.294Z,-3.51
2018-02-08T02:04:57.395Z,-3.43
2018-02-08T02:06:07.373Z,-3.43
2018-02-08T02:07:17.613Z,-3.46
2018-02-08T02:08:27.782Z,-3.54
2018-02-08T02:09:37.635Z,-3.51
2018-02-08T02:10:47.745Z,-3.54
2018-02-08T02:11:57.991Z,-3.52
2018-02-08T02:13:08.105Z,-3.64
2018-02-08T02:14:18.361Z,-3.64
2018-02-08T02:15:28.605Z,-3.67
2018-02-08T02:16:38.841Z,-3.67
2018-02-08T02:17:49.021Z,-3.69
2018-02-08T02:18:59.179Z,-3.66
2018-02-08T02:20:09.099Z,-3.63
2018-02-08T02:21:19.221Z,-3.63
2018-02-08T02:22:29.137Z,-3.64
2018-02-08T02:23:39.309Z,-3.7
2018-02-08T02:24:49.427Z,-3.79
2018-02-08T02:25:59.270Z,-3.72
2018-02-08T02:27:09.429Z,-3.87
2018-02-08T02:28:19.710Z,-3.81
2018-02-08T02:29:29.916Z,-3.92
2018-02-08T02:30:41.028Z,-3.94
2018-02-08T02:31:50.890Z,-4.03
2018-02-08T02:33:01.974Z,-4.14
2018-02-08T02:34:12.099Z,-4.06
2018-02-08T02:35:22.377Z,-4.11
2018-02-08T02:36:32.637Z,-4.19
2018-02-08T02:37:42.429Z,-4.16
2018-02-08T02:38:52.567Z,-4.13
2018-02-08T02:40:02.776Z,-4.09
2018-02-08T02:41:12.984Z,-4.13
2018-02-08T02:42:23.168Z,-4.09
2018-02-08T02:43:33.327Z,-4.13
2018-02-08T02:44:43.460Z,-4.13
2018-02-08T02:45:53.562Z,-4.19
2018-02-08T02:47:03.683Z,-4.16
2018-02-08T02:48:13.907Z,-4.16
2018-02-08T02:49:24.169Z,-4.14
2018-02-08T02:50:34.456Z,-4.24
2018-02-08T02:51:44.558Z,-4.17
2018-02-08T02:52:54.414Z,-4.31
2018-02-08T02:54:04.577Z,-4.28
2018-02-08T02:55:14.797Z,-4.28
2018-02-08T02:56:24.653Z,-4.34
2018-02-08T02:57:34.795Z,-4.16
2018-02-08T02:58:45.891Z,-4.13
2018-02-08T02:59:56.149Z,-4.19
2018-02-08T03:01:06.282Z,-4.13
2018-02-08T03:02:15.854Z,-4.13
2018-02-08T03:03:25.964Z,-4.14
2018-02-08T03:04:35.837Z,-4.09
2018-02-08T03:05:45.981Z,-4.09
2018-02-08T03:06:56.133Z,-4.05
2018-02-08T03:08:06.290Z,-4.1
2018-02-08T03:09:16.416Z,-4.02
2018-02-08T03:10:25.652Z,-4.09
2018-02-08T03:11:35.787Z,-4.16
2018-02-08T03:12:46.315Z,-4.13
2018-02-08T03:13:57.388Z,-4.21
2018-02-08T03:15:07.550Z,-4.19
2018-02-08T03:16:17.845Z,-4.29
2018-02-08T03:17:27.957Z,-4.27
2018-02-08T03:18:38.199Z,-4.37
2018-02-08T03:19:48.317Z,-4.34
2018-02-08T03:20:58.416Z,-4.4
2018-02-08T03:22:08.517Z,-4.34
2018-02-08T03:23:18.644Z,-4.35
2018-02-08T03:24:28.759Z,-4.37
2018-02-08T03:25:38.632Z,-4.29
2018-02-08T03:26:48.762Z,-4.37
2018-02-08T03:28:00.021Z,-4.42
2018-02-08T03:29:10.236Z,-4.47
2018-02-08T03:30:20.414Z,-4.46
2018-02-08T03:31:30.639Z,-4.43
2018-02-08T03:32:40.848Z,-4.45
2018-02-08T03:33:51.120Z,-4.42
2018-02-08T03:35:01.378Z,-4.47
2018-02-08T03:36:11.562Z,-4.47
2018-02-08T03:37:21.913Z,-4.45
2018-02-08T03:38:31.761Z,-4.49
2018-02-08T03:39:41.608Z,-4.52
2018-02-08T03:40:51.839Z,-4.39
2018-02-08T03:42:01.774Z,-4.4
2018-02-08T03:43:12.026Z,-4.45
2018-02-08T03:44:23.108Z,-4.43
2018-02-08T03:45:33.216Z,-4.45
2018-02-08T03:46:43.624Z,-4.35
2018-02-08T03:47:53.821Z,-4.27
2018-02-08T03:49:04.014Z,-4.28
2018-02-08T03:50:13.860Z,-4.4
2018-02-08T03:51:23.968Z,-4.32
2018-02-08T03:52:34.123Z,-4.29
2018-02-08T03:53:44.510Z,-4.4
2018-02-08T03:54:54.363Z,-4.45
2018-02-08T03:56:04.464Z,-4.42
2018-02-08T03:57:14.300Z,-4.39
2018-02-08T03:58:24.417Z,-4.37
2018-02-08T03:59:34.528Z,-4.42
2018-02-08T04:00:44.706Z,-4.45
2018-02-08T04:01:54.824Z,-4.39
2018-02-08T04:03:04.919Z,-4.27
2018-02-08T04:04:15.053Z,-4.28
2018-02-08T04:05:24.903Z,-4.29
2018-02-08T04:06:34.752Z,-4.28
2018-02-08T04:07:44.882Z,-4.28
2018-02-08T04:08:55.024Z,-4.28
2018-02-08T04:10:05.162Z,-4.39
2018-02-08T04:11:15.265Z,-4.27
2018-02-08T04:12:25.544Z,-4.32
2018-02-08T04:13:35.740Z,-4.35
2018-02-08T04:14:45.968Z,-4.35
2018-02-08T04:15:56.178Z,-4.39
2018-02-08T04:17:06.321Z,-4.37
2018-02-08T04:18:16.562Z,-4.4
2018-02-08T04:19:26.685Z,-4.39
2018-02-08T04:20:36.952Z,-4.27
2018-02-08T04:21:47.054Z,-4.27
2018-02-08T04:22:57.160Z,-4.4
2018-02-08T04:24:07.276Z,-4.46
2018-02-08T04:25:17.416Z,-4.39
2018-02-08T04:26:27.278Z,-4.42
2018-02-08T04:27:37.382Z,-4.42
2018-02-08T04:28:47.698Z,-4.47
2018-02-08T04:29:57.589Z,-4.52
2018-02-08T04:31:07.748Z,-4.5
2018-02-08T04:32:17.840Z,-4.58
2018-02-08T04:33:27.941Z,-4.6
2018-02-08T04:34:37.901Z,-4.58
2018-02-08T04:35:47.788Z,-4.55
2018-02-08T04:36:57.657Z,-4.52
2018-02-08T04:38:07.584Z,-4.47
2018-02-08T04:39:17.756Z,-4.46
2018-02-08T04:40:27.996Z,-4.46
2018-02-08T04:41:38.130Z,-4.46
2018-02-08T04:42:48.322Z,-4.53
2018-02-08T04:43:58.174Z,-4.47
2018-02-08T04:45:07.854Z,-4.52
2018-02-08T04:46:17.825Z,-4.6
2018-02-08T04:47:27.597Z,-4.81
2018-02-08T04:48:37.750Z,-4.58
2018-02-08T04:49:47.878Z,-4.66
2018-02-08T04:50:57.989Z,-4.66
2018-02-08T04:52:08.172Z,-4.73
2018-02-08T04:53:18.022Z,-4.67
2018-02-08T04:54:28.155Z,-4.78
2018-02-08T04:55:38.277Z,-4.78
2018-02-08T04:56:48.495Z,-4.74
2018-02-08T04:57:58.729Z,-4.84
2018-02-08T04:59:09.871Z,-4.89
2018-02-08T05:00:20.024Z,-4.86
2018-02-08T05:01:30.143Z,-4.85
2018-02-08T05:02:41.240Z,-4.88
2018-02-08T05:03:51.397Z,-4.84
2018-02-08T05:05:01.520Z,-4.71
2018-02-08T05:06:11.922Z,-4.68
2018-02-08T05:07:22.130Z,-4.73
2018-02-08T05:08:32.362Z,-4.78
2018-02-08T05:09:42.606Z,-4.74
2018-02-08T05:10:52.836Z,-4.76
2018-02-08T05:12:02.997Z,-4.68
2018-02-08T05:13:13.132Z,-4.74
2018-02-08T05:14:23.367Z,-4.63
2018-02-08T05:15:33.515Z,-4.58
2018-02-08T05:16:43.789Z,-4.66
2018-02-08T05:17:54.033Z,-4.61
2018-02-08T05:19:03.886Z,-4.57
2018-02-08T05:20:14.052Z,-4.58
2018-02-08T05:21:24.190Z,-4.55
2018-02-08T05:22:34.394Z,-4.52
2018-02-08T05:23:44.362Z,-4.61
2018-02-08T05:24:54.467Z,-4.74
2018-02-08T05:26:04.632Z,-4.68
2018-02-08T05:27:14.786Z,-4.73
2018-02-08T05:28:25.038Z,-4.74
2018-02-08T05:29:35.193Z,-4.76
2018-02-08T05:30:45.295Z,-4.88
2018-02-08T05:31:55.159Z,-4.86
2018-02-08T05:33:05.405Z,-4.68
2018-02-08T05:34:15.603Z,-4.78
2018-02-08T05:35:25.747Z,-4.73
2018-02-08T05:36:35.857Z,-4.81
2018-02-08T05:37:45.953Z,-4.82
2018-02-08T05:38:56.121Z,-4.79
2018-02-08T05:40:06.245Z,-4.73
2018-02-08T05:41:16.470Z,-4.74
2018-02-08T05:42:26.625Z,-4.71
2018-02-08T05:43:36.940Z,-4.79
2018-02-08T05:44:47.157Z,-4.88
2018-02-08T05:45:57.250Z,-4.88
2018-02-08T05:47:08.380Z,-4.86
2018-02-08T05:48:18.488Z,-4.84
2018-02-08T05:49:28.598Z,-4.89
2018-02-08T05:50:38.726Z,-4.86
2018-02-08T05:51:49.001Z,-4.79
2018-02-08T05:52:59.248Z,-4.74
2018-02-08T05:54:10.339Z,-4.88
2018-02-08T05:55:20.497Z,-4.7
2018-02-08T05:56:31.620Z,-4.88
2018-02-08T05:57:41.354Z,-4.89
2018-02-08T05:58:51.500Z,-4.88
2018-02-08T06:00:01.605Z,-4.94
2018-02-08T06:01:11.707Z,-4.92
2018-02-08T06:02:21.823Z,-4.97
2018-02-08T06:03:31.930Z,-5.15
2018-02-08T06:04:42.069Z,-5.07
2018-02-08T06:05:51.568Z,-5.09
2018-02-08T06:07:01.710Z,-5.09
2018-02-08T06:08:11.808Z,-5.07
2018-02-08T06:09:21.948Z,-5.14
2018-02-08T06:10:32.095Z,-5.2
2018-02-08T06:11:42.292Z,-5.06
2018-02-08T06:12:52.473Z,-5.14
2018-02-08T06:14:02.641Z,-5.15
2018-02-08T06:15:12.737Z,-5.04
2018-02-08T06:16:22.862Z,-5.2
2018-02-08T06:17:32.965Z,-5.09
2018-02-08T06:18:43.139Z,-5.09
2018-02-08T06:19:53.330Z,-5.15
2018-02-08T06:21:03.449Z,-5.1
2018-02-08T06:22:13.578Z,-5.1
2018-02-08T06:23:23.684Z,-5.09
2018-02-08T06:24:33.823Z,-5.1
2018-02-08T06:25:43.718Z,-5.12
2018-02-08T06:26:53.832Z,-5.06
2018-02-08T06:28:03.935Z,-5.15
2018-02-08T06:29:14.071Z,-5.07
2018-02-08T06:30:24.344Z,-5.04
2018-02-08T06:31:34.553Z,-4.97
2018-02-08T06:32:44.701Z,-4.91
2018-02-08T06:33:54.625Z,-4.91
2018-02-08T06:35:04.795Z,-4.96
2018-02-08T06:36:14.941Z,-5.1
2018-02-08T06:37:25.161Z,-5.04
2018-02-08T06:38:35.273Z,-5.14
2018-02-08T06:39:45.735Z,-5.03
2018-02-08T06:40:55.934Z,-5.12
2018-02-08T06:42:05.813Z,-5.07
2018-02-08T06:43:15.684Z,-5.06
2018-02-08T06:44:25.795Z,-5.06
2018-02-08T06:45:35.646Z,-5.07
2018-02-08T06:46:45.840Z,-5.09
2018-02-08T06:47:55.953Z,-5.1
2018-02-08T06:49:06.110Z,-5.02
2018-02-08T06:50:16.237Z,-5.1
2018-02-08T06:51:26.093Z,-5.03
2018-02-08T06:52:36.268Z,-5.09
2018-02-08T06:53:46.432Z,-5.14
2018-02-08T06:54:56.313Z,-5.12
2018-02-08T06:56:06.432Z,-5.1
2018-02-08T06:57:16.544Z,-5
2018-02-08T06:58:26.699Z,-5.12
2018-02-08T06:59:37.123Z,-5.14
2018-02-08T07:00:47.464Z,-5.09
2018-02-08T07:01:57.613Z,-5.1
2018-02-08T07:03:07.923Z,-5.06
2018-02-08T07:04:18.051Z,-5.09
2018-02-08T07:05:28.194Z,-5.07
2018-02-08T07:06:37.944Z,-5.04
2018-02-08T07:07:48.076Z,-5.03
2018-02-08T07:08:58.356Z,-4.97
2018-02-08T07:10:08.233Z,-5
2018-02-08T07:11:18.342Z,-4.99
2018-02-08T07:12:28.485Z,-4.94
2018-02-08T07:13:38.261Z,-4.89
2018-02-08T07:14:48.417Z,-4.89
2018-02-08T07:15:58.567Z,-4.78
2018-02-08T07:17:08.684Z,-4.63
2018-02-08T07:18:18.319Z,-4.42
2018-02-08T07:19:29.437Z,-4.14
2018-02-08T07:20:39.589Z,-3.84
2018-02-08T07:21:49.727Z,-3.61
2018-02-08T07:22:59.844Z,-3.33
2018-02-08T07:24:10.023Z,-3.12
2018-02-08T07:25:20.183Z,-2.92
2018-02-08T07:26:30.322Z,-2.64
2018-02-08T07:27:40.442Z,-2.55
2018-02-08T07:28:50.748Z,-2.4
2018-02-08T07:30:00.549Z,-2.24
2018-02-08T07:31:10.683Z,-2.26
2018-02-08T07:32:20.568Z,-2.18
2018-02-08T07:33:30.425Z,-2.07
2018-02-08T07:34:40.616Z,-2.04
2018-02-08T07:35:50.752Z,-2.18
2018-02-08T07:37:00.883Z,-2
2018-02-08T07:38:11.004Z,-1.71
2018-02-08T07:39:21.255Z,-1.52
2018-02-08T07:40:31.367Z,-1.31
2018-02-08T07:41:41.506Z,-1.09
2018-02-08T07:42:51.708Z,-0.91
2018-02-08T07:44:01.824Z,-0.63
2018-02-08T07:45:11.944Z,-0.45
2018-02-08T07:46:22.090Z,-0.34
2018-02-08T07:47:31.957Z,-0.09
2018-02-08T07:48:42.066Z,-0.04
2018-02-08T07:49:52.218Z,-0.01
2018-02-08T07:51:02.939Z,0.03
2018-02-08T07:52:13.150Z,0.17
2018-02-08T07:53:23.314Z,0.27
2018-02-08T07:54:33.182Z,0.4
2018-02-08T07:55:43.040Z,0.6
2018-02-08T07:56:53.156Z,0.79
2018-02-08T07:58:03.049Z,0.81
2018-02-08T07:59:13.170Z,0.97
2018-02-08T08:00:23.053Z,1.15
2018-02-08T08:01:33.175Z,1.17
2018-02-08T08:02:43.288Z,1.43
2018-02-08T08:03:53.421Z,1.53
2018-02-08T08:05:03.328Z,1.54
2018-02-08T08:06:13.467Z,1.57
2018-02-08T08:07:23.585Z,1.72
2018-02-08T08:08:33.873Z,1.87
2018-02-08T08:09:43.624Z,2.03
2018-02-08T08:10:53.783Z,2.16
2018-02-08T08:12:03.943Z,2.16
2018-02-08T08:13:13.588Z,2.33
2018-02-08T08:14:23.716Z,2.46
2018-02-08T08:15:33.847Z,2.63
2018-02-08T08:16:43.982Z,2.73
2018-02-08T08:17:54.089Z,2.84
2018-02-08T08:19:04.201Z,3.02
2018-02-08T08:20:13.830Z,3.04
2018-02-08T08:21:23.963Z,3.11
2018-02-08T08:22:33.904Z,3.22
2018-02-08T08:23:43.842Z,3.29
2018-02-08T08:24:53.705Z,3.55
2018-02-08T08:26:03.836Z,3.82
2018-02-08T08:27:14.000Z,3.85
2018-02-08T08:28:24.119Z,4.03
2018-02-08T08:29:34.254Z,4.19
2018-02-08T08:30:44.522Z,4.23
2018-02-08T08:31:54.753Z,4.36
2018-02-08T08:33:04.652Z,4.41
2018-02-08T08:34:14.781Z,4.53
2018-02-08T08:35:24.972Z,4.65
2018-02-08T08:36:34.854Z,4.85
2018-02-08T08:37:44.970Z,4.89
2018-02-08T08:38:55.103Z,5.11
2018-02-08T08:40:05.098Z,5.17
2018-02-08T08:41:15.239Z,5.33
2018-02-08T08:42:25.414Z,5.5
2018-02-08T08:43:35.554Z,5.61
2018-02-08T08:44:45.752Z,5.67
2018-02-08T08:45:55.979Z,5.9
2018-02-08T08:47:05.896Z,5.94
2018-02-08T08:48:16.014Z,6.06
2018-02-08T08:49:26.166Z,6.23
2018-02-08T08:50:36.456Z,6.44
2018-02-08T08:51:46.573Z,6.46
2018-02-08T08:52:56.815Z,6.57
2018-02-08T08:54:08.004Z,6.64
2018-02-08T08:55:17.902Z,6.75
2018-02-08T08:56:27.782Z,6.77
2018-02-08T08:57:37.913Z,6.85
2018-02-08T08:58:48.089Z,7.02
2018-02-08T08:59:58.231Z,7.18
2018-02-08T09:01:08.458Z,7.31
2018-02-08T09:02:19.581Z,7.37
2018-02-08T09:03:29.767Z,7.41
2018-02-08T09:04:39.984Z,7.39
2018-02-08T09:05:49.853Z,7.54
2018-02-08T09:06:59.721Z,7.66
2018-02-08T09:08:09.851Z,7.59
2018-02-08T09:09:19.996Z,7.67
2018-02-08T09:10:30.177Z,7.79
2018-02-08T09:11:40.310Z,7.74
2018-02-08T09:12:50.459Z,7.77
2018-02-08T09:14:00.598Z,7.76
2018-02-08T09:15:10.727Z,7.67
2018-02-08T09:16:21.013Z,7.56
2018-02-08T09:17:31.167Z,7.58
2018-02-08T09:18:41.384Z,7.58
2018-02-08T09:19:51.523Z,7.62
2018-02-08T09:21:01.648Z,7.66
2018-02-08T09:22:11.795Z,7.82
2018-02-08T09:23:21.934Z,8.13
2018-02-08T09:24:32.103Z,8.48
2018-02-08T09:25:42.248Z,8.8
2018-02-08T09:26:51.680Z,9.01
2018-02-08T09:28:01.803Z,9.23
2018-02-08T09:29:11.948Z,9.33
2018-02-08T09:30:22.103Z,9.45
2018-02-08T09:31:32.238Z,9.41
2018-02-08T09:32:42.388Z,9.56
2018-02-08T09:33:52.522Z,9.81
2018-02-08T09:35:02.652Z,9.77
2018-02-08T09:36:12.798Z,9.77
2018-02-08T09:37:22.936Z,9.63
2018-02-08T09:38:33.148Z,9.58
2018-02-08T09:39:43.295Z,9.66
2018-02-08T09:40:53.486Z,9.89
2018-02-08T09:42:03.370Z,10
2018-02-08T09:43:13.552Z,10.21
2018-02-08T09:44:23.436Z,10.11
2018-02-08T09:45:33.607Z,9.89
2018-02-08T09:46:44.716Z,9.75
2018-02-08T09:47:54.868Z,9.77
2018-02-08T09:49:05.048Z,9.59
2018-02-08T09:50:15.254Z,9.56
2018-02-08T09:51:25.434Z,9.48
2018-02-08T09:52:35.641Z,9.45
2018-02-08T09:53:45.813Z,9.41
2018-02-08T09:54:55.955Z,9.26
2018-02-08T09:56:06.122Z,9.19
2018-02-08T09:57:16.252Z,9.23
2018-02-08T09:58:26.428Z,9.22
2018-02-08T09:59:36.559Z,9.12
2018-02-08T10:00:46.814Z,9.05
2018-02-08T10:01:57.090Z,9.05
2018-02-08T10:03:07.275Z,8.92
2018-02-08T10:04:17.429Z,9.02
2018-02-08T10:05:27.229Z,8.93
2018-02-08T10:06:37.464Z,8.93
2018-02-08T10:07:47.681Z,8.95
2018-02-08T10:08:57.924Z,9.15
2018-02-08T10:10:08.155Z,9.15
2018-02-08T10:11:18.362Z,9.08
2018-02-08T10:12:29.263Z,9.17
2018-02-08T10:13:39.404Z,9
2018-02-08T10:14:49.563Z,8.95
2018-02-08T10:15:59.727Z,9
2018-02-08T10:17:09.942Z,9.09
2018-02-08T10:18:20.081Z,9.45
2018-02-08T10:19:30.285Z,9.75
2018-02-08T10:20:40.449Z,10.11
2018-02-08T10:21:50.369Z,10.24
2018-02-08T10:23:00.608Z,10.36
2018-02-08T10:24:10.764Z,10.17
2018-02-08T10:25:20.645Z,10.02
2018-02-08T10:26:30.790Z,10.11
2018-02-08T10:27:40.929Z,10.3
2018-02-08T10:28:51.119Z,10.57
2018-02-08T10:30:01.108Z,10.85
2018-02-08T10:31:11.260Z,11
2018-02-08T10:32:21.433Z,10.91
2018-02-08T10:33:31.589Z,10.67
2018-02-08T10:34:41.739Z,10.36
2018-02-08T10:35:51.997Z,10.17
2018-02-08T10:37:02.264Z,10
2018-02-08T10:38:12.505Z,9.85
2018-02-08T10:39:22.740Z,9.75
2018-02-08T10:40:32.921Z,9.65
2018-02-08T10:41:43.143Z,9.66
2018-02-08T10:42:53.057Z,9.58
2018-02-08T10:44:03.236Z,9.77
2018-02-08T10:45:13.375Z,9.99
2018-02-08T10:46:23.538Z,10.26
2018-02-08T10:47:33.706Z,10.33
2018-02-08T10:48:43.536Z,10.18
2018-02-08T10:49:53.727Z,10.21
2018-02-08T10:51:03.631Z,10.32
2018-02-08T10:52:13.798Z,10.26
2018-02-08T10:53:24.055Z,10.18
2018-02-08T10:54:34.214Z,10.11
2018-02-08T10:55:44.365Z,10
2018-02-08T10:56:54.504Z,9.95
2018-02-08T10:58:04.661Z,9.78
2018-02-08T10:59:14.854Z,9.83
2018-02-08T11:00:25.028Z,10.1
2018-02-08T11:01:35.172Z,10.26
2018-02-08T11:02:45.322Z,10.7
2018-02-08T11:03:55.477Z,10.8
2018-02-08T11:05:05.662Z,10.69
2018-02-08T11:06:15.813Z,10.63
2018-02-08T11:07:26.003Z,10.4
2018-02-08T11:08:36.256Z,10.32
2018-02-08T11:09:46.421Z,10.32
2018-02-08T11:10:56.725Z,10.5
2018-02-08T11:12:07.002Z,10.65
2018-02-08T11:13:17.181Z,10.55
2018-02-08T11:14:27.380Z,10.67
2018-02-08T11:15:37.620Z,10.83
2018-02-08T11:16:47.849Z,10.92
2018-02-08T11:17:57.753Z,11.02
2018-02-08T11:19:07.634Z,11.21
2018-02-08T11:20:17.634Z,11.39
2018-02-08T11:21:27.791Z,11.42
2018-02-08T11:22:37.676Z,11.4
2018-02-08T11:23:47.550Z,11.45
2018-02-08T11:24:57.753Z,11.53
2018-02-08T11:26:07.966Z,11.39
2018-02-08T11:27:18.156Z,11.28
2018-02-08T11:28:28.327Z,10.91
2018-02-08T11:29:38.464Z,10.69
2018-02-08T11:30:48.643Z,10.32
2018-02-08T11:31:58.795Z,10.11
2018-02-08T11:33:08.688Z,10
2018-02-08T11:34:18.827Z,10.11
2018-02-08T11:35:28.977Z,10.15
2018-02-08T11:36:38.903Z,10.18
2018-02-08T11:37:49.039Z,10.24
2018-02-08T11:38:59.325Z,10.19
2018-02-08T11:40:09.507Z,10
2018-02-08T11:41:19.731Z,9.95
2018-02-08T11:42:29.876Z,9.89
2018-02-08T11:43:40.080Z,9.84
2018-02-08T11:44:50.223Z,9.8
2018-02-08T11:46:00.421Z,9.63
2018-02-08T11:47:10.679Z,9.52
2018-02-08T11:48:20.943Z,9.53
2018-02-08T11:49:31.159Z,9.37
2018-02-08T11:50:41.300Z,9.44
2018-02-08T11:51:51.599Z,9.47
2018-02-08T11:53:01.737Z,9.34
2018-02-08T11:54:11.890Z,9.33
2018-02-08T11:55:21.787Z,9.27
2018-02-08T11:56:31.976Z,9.42
2018-02-08T11:57:42.144Z,9.62
2018-02-08T11:58:52.336Z,9.95
2018-02-08T12:00:02.548Z,10.17
2018-02-08T12:01:12.798Z,10.29
2018-02-08T12:02:22.976Z,10.32
2018-02-08T12:03:33.268Z,10.42
2018-02-08T12:04:43.454Z,10.33
2018-02-08T12:05:53.468Z,10.45
2018-02-08T12:07:03.668Z,10.48
2018-02-08T12:08:13.832Z,10.34
2018-02-08T12:09:23.788Z,10.36
2018-02-08T12:10:33.906Z,10.3
2018-02-08T12:11:44.046Z,10.21
2018-02-08T12:12:54.182Z,10.21
2018-02-08T12:14:04.379Z,10.17
2018-02-08T12:15:14.523Z,9.98
2018-02-08T12:16:24.722Z,10.17
2018-02-08T12:17:34.867Z,10.11
2018-02-08T12:18:44.778Z,10.17
2018-02-08T12:19:55.925Z,10.22
2018-02-08T12:21:06.182Z,10.32
2018-02-08T12:22:16.395Z,10.33
2018-02-08T12:23:26.636Z,10.37
2018-02-08T12:24:36.874Z,10.4
2018-02-08T12:25:47.163Z,10.5
2018-02-08T12:26:57.316Z,10.61
2018-02-08T12:28:07.527Z,10.4
2018-02-08T12:29:17.315Z,10.39
2018-02-08T12:30:27.461Z,10.61
2018-02-08T12:31:37.609Z,10.57
2018-02-08T12:32:47.795Z,10.55
2018-02-08T12:33:57.970Z,10.52
2018-02-08T12:35:08.144Z,10.54
2018-02-08T12:36:18.290Z,10.5
2018-02-08T12:37:28.435Z,10.42
2018-02-08T12:38:38.601Z,10.5
2018-02-08T12:39:48.748Z,10.39
2018-02-08T12:40:58.994Z,10.36
2018-02-08T12:42:09.215Z,10.36
2018-02-08T12:43:19.175Z,10.27
2018-02-08T12:44:29.358Z,10.29
2018-02-08T12:45:39.506Z,10.13
2018-02-08T12:46:49.426Z,10.13
2018-02-08T12:47:59.643Z,10
2018-02-08T12:49:09.913Z,9.73
2018-02-08T12:50:19.905Z,9.55
2018-02-08T12:51:30.086Z,9.52
2018-02-08T12:52:40.244Z,9.25
2018-02-08T12:53:50.424Z,9.11
2018-02-08T12:55:00.578Z,8.97
2018-02-08T12:56:10.522Z,8.93
2018-02-08T12:57:20.665Z,8.89
2018-02-08T12:58:30.834Z,8.9
2018-02-08T12:59:40.717Z,8.93
2018-02-08T13:00:50.893Z,9.05
2018-02-08T13:02:01.101Z,9.01
2018-02-08T13:03:11.389Z,9.11
2018-02-08T13:04:21.546Z,9.07
2018-02-08T13:05:31.744Z,9
2018-02-08T13:06:41.911Z,8.89
2018-02-08T13:07:52.139Z,8.82
2018-02-08T13:09:02.405Z,8.68
2018-02-08T13:10:12.592Z,8.5
2018-02-08T13:11:22.826Z,8.53
2018-02-08T13:12:33.004Z,8.45
2018-02-08T13:13:43.320Z,8.45
2018-02-08T13:14:53.235Z,8.39
2018-02-08T13:16:03.130Z,8.28
2018-02-08T13:17:13.262Z,8.12
2018-02-08T13:18:23.445Z,8.07
2018-02-08T13:19:33.577Z,7.9
2018-02-08T13:20:43.719Z,7.73
2018-02-08T13:21:53.887Z,7.49
2018-02-08T13:23:04.101Z,7.34
2018-02-08T13:24:14.240Z,7.24
2018-02-08T13:25:24.426Z,7.17
2018-02-08T13:26:34.720Z,7.14
2018-02-08T13:27:44.930Z,6.99
2018-02-08T13:28:56.200Z,6.93
2018-02-08T13:30:06.429Z,6.87
2018-02-08T13:31:16.616Z,6.9
2018-02-08T13:32:27.475Z,6.82
2018-02-08T13:33:37.382Z,6.71
2018-02-08T13:34:47.553Z,6.62
2018-02-08T13:35:57.694Z,6.48
2018-02-08T13:37:07.873Z,6.31
2018-02-08T13:38:18.024Z,6.17
2018-02-08T13:39:29.133Z,6.05
2018-02-08T13:40:39.348Z,6.11
2018-02-08T13:41:49.529Z,6.12
2018-02-08T13:42:59.726Z,6.08
2018-02-08T13:44:09.992Z,6.06
2018-02-08T13:45:20.150Z,6.03
2018-02-08T13:46:30.034Z,5.88
2018-02-08T13:47:40.203Z,5.86
2018-02-08T13:48:50.117Z,5.77
2018-02-08T13:50:00.266Z,5.64
2018-02-08T13:51:10.452Z,5.62
2018-02-08T13:52:20.581Z,5.26
2018-02-08T13:53:30.960Z,5.26
2018-02-08T13:54:41.098Z,5.16
2018-02-08T13:55:50.963Z,5.07
2018-02-08T13:57:01.090Z,4.89
2018-02-08T13:58:11.254Z,4.77
2018-02-08T13:59:21.372Z,4.53
2018-02-08T14:00:31.600Z,4.56
2018-02-08T14:01:41.792Z,4.52
2018-02-08T14:02:51.768Z,4.49
2018-02-08T14:04:01.937Z,4.43
2018-02-08T14:05:12.115Z,4.31
2018-02-08T14:06:22.248Z,4.18
2018-02-08T14:07:32.434Z,4.09
2018-02-08T14:08:42.571Z,3.98
2018-02-08T14:09:52.899Z,4
2018-02-08T14:11:03.119Z,3.91
2018-02-08T14:12:13.400Z,3.94
2018-02-08T14:13:23.545Z,3.94
2018-02-08T14:14:33.538Z,4.05
2018-02-08T14:15:43.672Z,4.04
2018-02-08T14:16:54.028Z,4.03
2018-02-08T14:18:04.166Z,4.03
2018-02-08T14:19:15.294Z,3.95
2018-02-08T14:20:25.443Z,3.86
2018-02-08T14:21:35.643Z,3.76
2018-02-08T14:22:46.861Z,3.73
2018-02-08T14:23:56.991Z,3.64
2018-02-08T14:25:06.889Z,3.73
2018-02-08T14:26:17.052Z,3.69
2018-02-08T14:27:27.259Z,3.61
2018-02-08T14:28:37.472Z,3.55
2018-02-08T14:29:47.599Z,3.44
2018-02-08T14:30:57.784Z,3.52
2018-02-08T14:32:08.090Z,3.49
2018-02-08T14:33:18.255Z,3.57
2018-02-08T14:34:28.440Z,3.54
2018-02-08T14:35:38.613Z,3.5
2018-02-08T14:36:48.729Z,3.42
2018-02-08T14:37:58.873Z,3.43
2018-02-08T14:39:09.025Z,3.28
2018-02-08T14:40:19.162Z,3.26
2018-02-08T14:41:29.030Z,3.29
2018-02-08T14:42:39.220Z,3.29
2018-02-08T14:43:49.090Z,3.32
2018-02-08T14:44:59.210Z,3.28
2018-02-08T14:46:09.371Z,3.29
2018-02-08T14:47:19.598Z,3.25
2018-02-08T14:48:29.736Z,3.25
2018-02-08T14:49:39.900Z,3.08
2018-02-08T14:50:50.123Z,3.04
2018-02-08T14:52:00.455Z,2.92
2018-02-08T14:53:10.580Z,2.89
2018-02-08T14:54:20.804Z,2.94
2018-02-08T14:55:30.972Z,2.97
2018-02-08T14:56:40.848Z,2.99
2018-02-08T14:57:52.019Z,2.99
2018-02-08T14:59:03.122Z,2.92
2018-02-08T15:00:13.303Z,2.92
2018-02-08T15:01:23.453Z,3.02
2018-02-08T15:02:33.584Z,2.96
2018-02-08T15:03:43.500Z,2.89
2018-02-08T15:04:53.774Z,2.82
2018-02-08T15:06:03.954Z,2.85
2018-02-08T15:07:14.242Z,2.84
2018-02-08T15:08:25.105Z,2.92
2018-02-08T15:09:35.284Z,2.89
2018-02-08T15:10:45.485Z,2.87
2018-02-08T15:11:55.684Z,2.97
2018-02-08T15:13:05.937Z,2.85
2018-02-08T15:14:16.136Z,2.92
2018-02-08T15:15:26.278Z,2.82
2018-02-08T15:16:36.566Z,2.84
2018-02-08T15:17:46.747Z,2.78